createdAt,value
2022-09-15T00:02:28.395Z,99331.66
2022-09-15T00:04:54.948Z,99327.88
2022-09-15T00:07:22.707Z,99324.50
2022-09-15T00:09:49.180Z,99318.16
2022-09-15T00:12:15.634Z,99311.72
2022-09-15T00:14:42.094Z,99321.47
2022-09-15T00:17:08.698Z,99323.28
2022-09-15T00:19:35.727Z,99324.44
2022-09-15T00:22:03.025Z,99316.56
2022-09-15T00:24:29.636Z,99319.53
2022-09-15T00:26:57.132Z,99328.56
2022-09-15T00:29:23.671Z,99311.16
2022-09-15T00:31:50.510Z,99308.94
2022-09-15T00:34:17.162Z,99312.66
2022-09-15T00:36:43.616Z,99304.72
2022-09-15T00:39:10.295Z,99304.75
2022-09-15T00:41:39.606Z,99300.63
2022-09-15T00:44:35.477Z,99301.06
2022-09-15T00:47:18.635Z,99292.00
2022-09-15T00:49:49.772Z,99292.47
2022-09-15T00:52:21.252Z,99283.06
2022-09-15T00:55:08.831Z,99288.38
2022-09-15T00:57:51.393Z,99288.75
2022-09-15T01:00:21.072Z,99286.44
2022-09-15T01:02:48.533Z,99276.97
2022-09-15T01:05:17.685Z,99288.38
2022-09-15T01:07:56.488Z,99278.56
2022-09-15T01:10:31.711Z,99278.19
2022-09-15T01:13:04.639Z,99281.94
2022-09-15T01:15:48.990Z,99270.97
2022-09-15T01:18:44.619Z,99275.13
2022-09-15T01:21:37.738Z,99261.53
2022-09-15T01:24:23.560Z,99269.84
2022-09-15T01:27:13.711Z,99262.69
2022-09-15T01:29:54.142Z,99259.66
2022-09-15T01:33:04.969Z,99254.75
2022-09-15T01:35:43.444Z,99250.25
2022-09-15T01:38:31.855Z,99248.72
2022-09-15T01:41:14.223Z,99252.50
2022-09-15T01:43:49.367Z,99245.72
2022-09-15T01:46:17.681Z,99255.94
2022-09-15T01:48:44.959Z,99252.88
2022-09-15T01:51:20.704Z,99255.13
2022-09-15T01:53:49.731Z,99251.38
2022-09-15T01:56:16.269Z,99251.38
2022-09-15T01:58:42.804Z,99255.56
2022-09-15T02:01:35.055Z,99248.75
2022-09-15T02:04:14.902Z,99250.25
2022-09-15T02:06:54.271Z,99252.53
2022-09-15T02:09:44.735Z,99245.78
2022-09-15T02:12:29.269Z,99237.44
2022-09-15T02:15:11.307Z,99238.97
2022-09-15T02:17:43.667Z,99239.75
2022-09-15T02:20:10.431Z,99232.22
2022-09-15T02:22:38.158Z,99239.38
2022-09-15T02:25:16.078Z,99230.31
2022-09-15T02:27:51.713Z,99226.94
2022-09-15T02:30:20.020Z,99230.31
2022-09-15T02:32:59.793Z,99225.41
2022-09-15T02:35:28.343Z,99229.22
2022-09-15T02:37:58.326Z,99234.13
2022-09-15T02:40:28.216Z,99223.16
2022-09-15T02:43:03.172Z,99228.84
2022-09-15T02:45:31.776Z,99223.97
2022-09-15T02:47:59.408Z,99220.56
2022-09-15T02:50:26.799Z,99222.44
2022-09-15T02:52:56.217Z,99216.03
2022-09-15T02:55:24.231Z,99214.91
2022-09-15T02:57:50.682Z,99216.41
2022-09-15T03:00:20.099Z,99212.66
2022-09-15T03:02:51.943Z,99216.03
2022-09-15T03:05:20.676Z,99215.28
2022-09-15T03:07:47.144Z,99219.44
2022-09-15T03:10:14.261Z,99212.28
2022-09-15T03:12:46.230Z,99213.03
2022-09-15T03:15:14.986Z,99203.59
2022-09-15T03:17:43.377Z,99205.88
2022-09-15T03:20:12.041Z,99203.22
2022-09-15T03:22:38.874Z,99208.50
2022-09-15T03:25:06.649Z,99193.03
2022-09-15T03:27:34.146Z,99199.47
2022-09-15T03:30:00.958Z,99195.31
2022-09-15T03:32:27.883Z,99192.28
2022-09-15T03:34:58.334Z,99184.38
2022-09-15T03:37:25.649Z,99189.28
2022-09-15T03:39:52.137Z,99188.13
2022-09-15T03:42:22.051Z,99193.41
2022-09-15T03:44:48.537Z,99184.72
2022-09-15T03:47:14.981Z,99185.88
2022-09-15T03:49:41.544Z,99180.19
2022-09-15T03:52:07.983Z,99183.59
2022-09-15T03:54:35.758Z,99176.06
2022-09-15T03:57:03.622Z,99175.69
2022-09-15T03:59:30.093Z,99163.97
2022-09-15T04:01:56.663Z,99171.53
2022-09-15T04:04:23.497Z,99173.38
2022-09-15T04:06:49.971Z,99166.59
2022-09-15T04:09:20.485Z,99164.72
2022-09-15T04:11:51.399Z,99166.22
2022-09-15T04:14:17.874Z,99171.16
2022-09-15T04:16:44.403Z,99161.31
2022-09-15T04:19:12.802Z,99164.38
2022-09-15T04:21:39.541Z,99162.84
2022-09-15T04:24:06.141Z,99163.19
2022-09-15T04:26:35.317Z,99173.41
2022-09-15T04:29:04.666Z,99168.50
2022-09-15T04:31:32.397Z,99160.56
2022-09-15T04:34:00.145Z,99162.06
2022-09-15T04:36:28.747Z,99171.13
2022-09-15T04:38:57.319Z,99166.22
2022-09-15T04:41:25.555Z,99164.34
2022-09-15T04:43:52.342Z,99162.44
2022-09-15T04:46:19.054Z,99156.44
2022-09-15T04:48:46.309Z,99148.13
2022-09-15T04:51:18.532Z,99156.41
2022-09-15T04:53:45.133Z,99148.53
2022-09-15T04:56:17.309Z,99144.34
2022-09-15T04:58:49.614Z,99145.09
2022-09-15T05:01:22.189Z,99143.97
2022-09-15T05:03:49.468Z,99144.69
2022-09-15T05:06:18.120Z,99146.56
2022-09-15T05:08:53.333Z,99144.28
2022-09-15T05:11:20.037Z,99140.84
2022-09-15T05:13:46.951Z,99133.25
2022-09-15T05:16:18.356Z,99140.03
2022-09-15T05:18:46.340Z,99136.94
2022-09-15T05:21:14.754Z,99142.25
2022-09-15T05:23:41.710Z,99133.22
2022-09-15T05:26:32.826Z,99138.81
2022-09-15T05:29:00.578Z,99144.88
2022-09-15T05:31:34.327Z,99155.03
2022-09-15T05:34:03.882Z,99135.41
2022-09-15T05:36:30.843Z,99142.66
2022-09-15T05:38:57.956Z,99143.41
2022-09-15T05:41:25.869Z,99143.00
2022-09-15T05:43:53.978Z,99131.28
2022-09-15T05:46:20.659Z,99131.59
2022-09-15T05:48:49.473Z,99125.16
2022-09-15T05:51:17.130Z,99113.00
2022-09-15T05:53:43.674Z,99105.47
2022-09-15T05:56:12.101Z,99114.88
2022-09-15T05:58:43.137Z,99107.03
2022-09-15T06:01:20.870Z,99114.06
2022-09-15T06:03:49.309Z,99109.88
2022-09-15T06:06:16.053Z,99111.50
2022-09-15T06:08:48.722Z,99110.03
2022-09-15T06:11:31.399Z,99102.38
2022-09-15T06:14:03.269Z,99109.13
2022-09-15T06:16:32.831Z,99106.91
2022-09-15T06:19:00.686Z,99100.94
2022-09-15T06:21:30.197Z,99099.06
2022-09-15T06:24:04.490Z,99105.31
2022-09-15T06:26:31.424Z,99110.56
2022-09-15T06:29:02.790Z,99103.03
2022-09-15T06:31:31.619Z,99109.09
2022-09-15T06:33:58.720Z,99112.97
2022-09-15T06:36:29.475Z,99111.53
2022-09-15T06:39:04.845Z,99108.16
2022-09-15T06:41:52.506Z,99118.16
2022-09-15T06:44:21.541Z,99111.22
2022-09-15T06:46:48.488Z,99119.59
2022-09-15T06:49:14.934Z,99111.00
2022-09-15T06:51:42.122Z,99115.44
2022-09-15T06:54:08.702Z,99104.00
2022-09-15T06:56:38.057Z,99109.19
2022-09-15T06:59:05.087Z,99112.19
2022-09-15T07:01:32.463Z,99111.50
2022-09-15T07:04:00.943Z,99109.53
2022-09-15T07:06:32.875Z,99114.41
2022-09-15T07:09:01.582Z,99118.38
2022-09-15T07:11:30.179Z,99122.66
2022-09-15T07:13:57.920Z,99114.31
2022-09-15T07:16:28.322Z,99112.97
2022-09-15T07:19:02.287Z,99122.50
2022-09-15T07:21:28.860Z,99126.50
2022-09-15T07:23:57.341Z,99131.31
2022-09-15T07:26:29.025Z,99133.13
2022-09-15T07:29:00.925Z,99136.38
2022-09-15T07:31:32.992Z,99131.41
2022-09-15T07:34:00.208Z,99138.47
2022-09-15T07:36:26.968Z,99140.19
2022-09-15T07:38:53.585Z,99132.75
2022-09-15T07:41:31.463Z,99144.09
2022-09-15T07:43:59.370Z,99134.22
2022-09-15T07:46:27.372Z,99140.50
2022-09-15T07:48:57.355Z,99140.81
2022-09-15T07:51:27.261Z,99135.00
2022-09-15T07:53:54.172Z,99142.69
2022-09-15T07:56:21.706Z,99145.34
2022-09-15T07:58:49.309Z,99143.97
2022-09-15T08:01:17.302Z,99148.22
2022-09-15T08:03:52.113Z,99126.81
2022-09-15T08:06:21.258Z,99151.22
2022-09-15T08:08:50.096Z,99162.81
2022-09-15T08:11:19.323Z,99176.47
2022-09-15T08:13:46.792Z,99163.16
2022-09-15T08:16:16.339Z,99161.16
2022-09-15T08:18:44.279Z,99165.81
2022-09-15T08:21:17.600Z,99165.34
2022-09-15T08:23:45.173Z,99171.94
2022-09-15T08:26:14.331Z,99158.31
2022-09-15T08:28:41.987Z,99159.69
2022-09-15T08:31:12.004Z,99157.41
2022-09-15T08:33:46.142Z,99155.34
2022-09-15T08:36:14.661Z,99139.88
2022-09-15T08:38:44.164Z,99147.00
2022-09-15T08:41:23.958Z,99147.28
2022-09-15T08:43:57.187Z,99148.59
2022-09-15T08:46:37.800Z,99149.63
2022-09-15T08:49:49.899Z,99150.69
2022-09-15T08:52:35.567Z,99157.00
2022-09-15T08:55:06.600Z,99145.47
2022-09-15T08:57:33.392Z,99154.28
2022-09-15T08:59:59.924Z,99150.59
2022-09-15T09:03:07.887Z,99147.78
2022-09-15T09:05:53.134Z,99149.22
2022-09-15T09:08:47.931Z,99149.16
2022-09-15T09:11:14.813Z,99145.56
2022-09-15T09:13:57.455Z,99142.63
2022-09-15T09:16:58.595Z,99140.50
2022-09-15T09:19:56.782Z,99139.63
2022-09-15T09:22:25.674Z,99140.13
2022-09-15T09:24:55.563Z,99142.91
2022-09-15T09:27:25.457Z,99146.13
2022-09-15T09:30:01.913Z,99136.56
2022-09-15T09:32:42.623Z,99146.69
2022-09-15T09:35:28.245Z,99132.66
2022-09-15T09:37:55.145Z,99122.94
2022-09-15T09:40:22.367Z,99138.06
2022-09-15T09:42:49.204Z,99135.19
2022-09-15T09:45:18.703Z,99116.88
2022-09-15T09:47:46.317Z,99119.06
2022-09-15T09:50:34.940Z,99125.50
2022-09-15T09:53:22.560Z,99141.25
2022-09-15T09:55:49.489Z,99124.03
2022-09-15T09:58:25.019Z,99133.97
2022-09-15T10:00:52.885Z,99123.88
2022-09-15T10:03:32.844Z,99118.69
2022-09-15T10:06:16.129Z,99114.53
2022-09-15T10:09:17.517Z,99113.13
2022-09-15T10:11:53.194Z,99109.88
2022-09-15T10:14:31.725Z,99112.28
2022-09-15T10:17:03.689Z,99119.34
2022-09-15T10:19:55.921Z,99120.75
2022-09-15T10:22:39.787Z,99116.13
2022-09-15T10:25:49.403Z,99117.69
2022-09-15T10:28:23.847Z,99103.94
2022-09-15T10:31:10.879Z,99103.25
2022-09-15T10:33:42.672Z,99095.56
2022-09-15T10:36:24.038Z,99094.13
2022-09-15T10:39:23.824Z,99088.31
2022-09-15T10:42:24.230Z,99106.16
2022-09-15T10:45:10.844Z,99103.53
2022-09-15T10:48:08.381Z,99097.47
2022-09-15T10:51:04.983Z,99102.59
2022-09-15T10:54:14.202Z,99098.69
2022-09-15T10:56:49.586Z,99094.81
2022-09-15T10:59:37.884Z,99096.13
2022-09-15T11:02:24.591Z,99101.38
2022-09-15T11:05:23.838Z,99110.06
2022-09-15T11:08:22.788Z,99103.84
2022-09-15T11:11:02.013Z,99105.00
2022-09-15T11:13:52.354Z,99109.38
2022-09-15T11:16:43.964Z,99118.09
2022-09-15T11:19:54.334Z,99103.53
2022-09-15T11:22:29.138Z,99111.03
2022-09-15T11:25:12.910Z,99099.56
2022-09-15T11:27:46.782Z,99099.06
2022-09-15T11:30:36.931Z,99110.88
2022-09-15T11:33:19.810Z,99123.31
2022-09-15T11:35:59.545Z,99126.47
2022-09-15T11:38:45.010Z,99127.56
2022-09-15T11:41:34.313Z,99132.47
2022-09-15T11:44:40.051Z,99148.38
2022-09-15T11:47:26.468Z,99157.72
2022-09-15T11:50:10.053Z,99157.72
2022-09-15T11:53:17.936Z,99141.94
2022-09-15T11:56:12.587Z,99142.00
2022-09-15T11:59:29.368Z,99145.50
2022-09-15T12:02:31.384Z,99139.69
2022-09-15T12:05:12.514Z,99140.44
2022-09-15T12:08:10.385Z,99134.59
2022-09-15T12:10:40.418Z,99142.16
2022-09-15T12:13:10.331Z,99143.19
2022-09-15T12:15:40.090Z,99148.28
2022-09-15T12:18:41.774Z,99145.38
2022-09-15T12:21:12.810Z,99147.31
2022-09-15T12:23:44.428Z,99149.75
2022-09-15T12:26:16.211Z,99138.84
2022-09-15T12:29:03.089Z,99149.00
2022-09-15T12:31:34.608Z,99129.69
2022-09-15T12:34:26.044Z,99127.56
2022-09-15T12:36:55.199Z,99124.25
2022-09-15T12:39:43.769Z,99132.16
2022-09-15T12:42:23.576Z,99153.47
2022-09-15T12:44:54.634Z,99136.50
2022-09-15T12:47:30.172Z,99138.59
2022-09-15T12:50:01.004Z,99140.63
2022-09-15T12:52:29.230Z,99133.19
2022-09-15T12:54:59.500Z,99138.25
2022-09-15T12:57:36.486Z,99123.47
2022-09-15T13:00:36.287Z,99126.66
2022-09-15T13:03:05.384Z,99121.31
2022-09-15T13:05:41.057Z,99121.44
2022-09-15T13:08:23.868Z,99118.44
2022-09-15T13:11:09.773Z,99130.44
2022-09-15T13:13:43.900Z,99129.41
2022-09-15T13:16:29.490Z,99132.41
2022-09-15T13:19:41.349Z,99129.47
2022-09-15T13:22:19.234Z,99132.47
2022-09-15T13:24:59.122Z,99142.38
2022-09-15T13:28:03.814Z,99131.13
2022-09-15T13:30:55.332Z,99124.44
2022-09-15T13:40:27.022Z,99127.44
2022-09-15T13:43:02.616Z,99132.41
2022-09-15T13:46:05.735Z,99126.41
2022-09-15T13:49:32.063Z,99122.16
2022-09-15T13:52:24.612Z,99115.34
2022-09-15T13:55:28.993Z,99132.81
2022-09-15T14:01:00.232Z,99128.25
2022-09-15T14:03:45.994Z,99133.25
2022-09-15T14:06:22.858Z,99120.75
2022-09-15T14:08:54.107Z,99127.44
2022-09-15T14:11:31.451Z,99131.06
2022-09-15T14:14:00.550Z,99129.38
2022-09-15T14:16:31.263Z,99129.31
2022-09-15T14:19:00.371Z,99134.16
2022-09-15T14:21:32.353Z,99129.25
2022-09-15T14:24:04.312Z,99127.75
2022-09-15T14:26:33.015Z,99132.63
2022-09-15T14:29:04.238Z,99121.69
2022-09-15T14:31:39.313Z,99123.06
2022-09-15T14:34:16.273Z,99114.16
2022-09-15T14:37:21.951Z,99121.97
2022-09-15T14:39:56.607Z,99135.75
2022-09-15T14:42:51.424Z,99131.91
2022-09-15T14:48:20.129Z,99125.00
2022-09-15T14:51:02.181Z,99128.47
2022-09-15T14:53:33.202Z,99121.25
2022-09-15T14:56:09.496Z,99118.59
2022-09-15T14:58:49.967Z,99115.81
2022-09-15T15:01:51.606Z,99122.38
2022-09-15T15:04:33.228Z,99129.13
2022-09-15T15:07:29.289Z,99121.16
2022-09-15T15:09:59.102Z,99131.69
2022-09-15T15:12:40.591Z,99121.47
2022-09-15T15:15:11.190Z,99123.03
2022-09-15T15:17:46.693Z,99117.34
2022-09-15T15:20:26.827Z,99111.38
2022-09-15T15:23:27.456Z,99122.56
2022-09-15T15:25:54.614Z,99113.72
2022-09-15T15:28:35.828Z,99128.91
2022-09-15T15:31:08.125Z,99115.56
2022-09-15T15:33:34.917Z,99110.25
2022-09-15T15:36:10.264Z,99101.53
2022-09-15T15:38:44.907Z,99106.16
2022-09-15T15:41:28.466Z,99108.31
2022-09-15T15:43:57.421Z,99109.44
2022-09-15T15:46:52.532Z,99103.34
2022-09-15T15:49:21.260Z,99101.31
2022-09-15T15:51:47.888Z,99103.38
2022-09-15T15:54:15.792Z,99106.84
2022-09-15T15:56:42.698Z,99103.91
2022-09-15T15:59:14.871Z,99106.78
2022-09-15T16:01:43.799Z,99111.34
2022-09-15T16:04:11.424Z,99113.00
2022-09-15T16:06:38.103Z,99116.75
2022-09-15T16:09:06.031Z,99121.41
2022-09-15T16:11:32.726Z,99119.97
2022-09-15T16:13:59.384Z,99120.19
2022-09-15T16:16:27.418Z,99129.75
2022-09-15T16:18:54.263Z,99128.16
2022-09-15T16:21:28.992Z,99125.72
2022-09-15T16:23:55.507Z,99131.47
2022-09-15T16:26:23.667Z,99129.69
2022-09-15T16:28:51.236Z,99131.44
2022-09-15T16:31:17.776Z,99137.34
2022-09-15T16:33:44.317Z,99133.91
2022-09-15T16:36:13.213Z,99135.00
2022-09-15T16:38:41.044Z,99129.25
2022-09-15T16:41:26.067Z,99135.28
2022-09-15T16:43:56.697Z,99127.41
2022-09-15T16:46:23.235Z,99138.22
2022-09-15T16:48:49.853Z,99142.59
2022-09-15T16:51:34.250Z,99136.03
2022-09-15T16:54:03.706Z,99137.25
2022-09-15T16:56:30.175Z,99146.88
2022-09-15T16:59:00.137Z,99134.63
2022-09-15T17:01:27.252Z,99134.41
2022-09-15T17:03:53.802Z,99144.53
2022-09-15T17:06:22.001Z,99138.72
2022-09-15T17:08:48.557Z,99129.19
2022-09-15T17:11:19.759Z,99140.28
2022-09-15T17:13:46.425Z,99136.06
2022-09-15T17:16:15.371Z,99131.50
2022-09-15T17:18:41.927Z,99136.72
2022-09-15T17:21:11.371Z,99136.53
2022-09-15T17:23:40.519Z,99137.78
2022-09-15T17:26:11.463Z,99136.25
2022-09-15T17:28:38.155Z,99133.25
2022-09-15T17:31:06.733Z,99137.84
2022-09-15T17:33:33.313Z,99141.69
2022-09-15T17:36:00.321Z,99143.88
2022-09-15T17:38:27.705Z,99131.47
2022-09-15T17:40:55.347Z,99134.56
2022-09-15T17:43:24.475Z,99136.06
2022-09-15T17:45:51.732Z,99141.44
2022-09-15T17:48:18.601Z,99135.41
2022-09-15T17:50:46.334Z,99140.63
2022-09-15T17:53:18.563Z,99144.41
2022-09-15T17:55:46.491Z,99140.72
2022-09-15T17:58:16.677Z,99150.25
2022-09-15T18:00:53.993Z,99145.31
2022-09-15T18:03:29.881Z,99142.00
2022-09-15T18:06:04.731Z,99142.81
2022-09-15T18:08:36.923Z,99142.47
2022-09-15T18:11:14.610Z,99136.81
2022-09-15T18:13:46.274Z,99134.53
2022-09-15T18:16:18.510Z,99129.28
2022-09-15T18:18:45.271Z,99135.28
2022-09-15T18:21:23.523Z,99137.19
2022-09-15T18:23:49.973Z,99129.63
2022-09-15T18:26:16.487Z,99126.97
2022-09-15T18:28:44.608Z,99133.22
2022-09-15T18:31:13.687Z,99129.09
2022-09-15T18:33:43.759Z,99130.31
2022-09-15T18:38:51.447Z,99128.78
2022-09-15T18:41:18.913Z,99125.34
2022-09-15T18:43:49.027Z,99127.28
2022-09-15T18:46:16.041Z,99128.75
2022-09-15T18:48:42.788Z,99123.50
2022-09-15T18:51:10.034Z,99130.66
2022-09-15T18:53:38.270Z,99129.50
2022-09-15T18:56:11.765Z,99137.47
2022-09-15T18:58:38.393Z,99126.56
2022-09-15T19:01:05.232Z,99125.09
2022-09-15T19:03:44.092Z,99121.31
2022-09-15T19:06:12.134Z,99127.38
2022-09-15T19:08:41.521Z,99121.03
2022-09-15T19:11:11.253Z,99120.63
2022-09-15T19:13:37.973Z,99121.75
2022-09-15T19:16:05.829Z,99121.38
2022-09-15T19:18:33.345Z,99122.91
2022-09-15T19:21:11.047Z,99120.63
2022-09-15T19:23:38.223Z,99122.56
2022-09-15T19:26:06.320Z,99128.56
2022-09-15T19:28:33.474Z,99122.19
2022-09-15T19:31:00.975Z,99128.56
2022-09-15T19:33:28.013Z,99130.06
2022-09-15T19:36:10.699Z,99118.78
2022-09-15T19:38:41.473Z,99122.56
2022-09-15T19:41:11.692Z,99119.91
2022-09-15T19:43:41.496Z,99121.44
2022-09-15T19:46:16.069Z,99130.09
2022-09-15T19:48:46.530Z,99121.03
2022-09-15T19:51:17.538Z,99118.78
2022-09-15T19:53:44.453Z,99127.44
2022-09-15T19:56:16.156Z,99128.59
2022-09-15T19:58:45.080Z,99121.03
2022-09-15T20:01:11.732Z,99119.16
2022-09-15T20:03:39.710Z,99124.41
2022-09-15T20:06:08.295Z,99125.19
2022-09-15T20:08:37.756Z,99129.69
2022-09-15T20:11:06.599Z,99132.34
2022-09-15T20:13:43.747Z,99130.84
2022-09-15T20:16:17.707Z,99138.00
2022-09-15T20:18:48.749Z,99139.88
2022-09-15T20:21:51.098Z,99140.63
2022-09-15T20:24:19.604Z,99152.69
2022-09-15T20:26:46.238Z,99159.88
2022-09-15T20:29:15.935Z,99167.78
2022-09-15T20:31:42.713Z,99166.63
2022-09-15T20:34:09.463Z,99147.03
2022-09-15T20:36:39.764Z,99148.53
2022-09-15T20:39:10.431Z,99157.22
2022-09-15T20:41:37.497Z,99146.28
2022-09-15T20:44:06.369Z,99143.28
2022-09-15T20:46:34.743Z,99138.00
2022-09-15T20:49:01.718Z,99130.06
2022-09-15T20:51:34.018Z,99128.22
2022-09-15T20:54:02.122Z,99126.72
2022-09-15T20:56:30.241Z,99124.06
2022-09-15T20:59:01.509Z,99120.31
2022-09-15T21:01:36.772Z,99115.03
2022-09-15T21:04:06.461Z,99115.38
2022-09-15T21:06:45.650Z,99118.81
2022-09-15T21:09:12.450Z,99125.56
2022-09-15T21:11:43.104Z,99121.03
2022-09-15T21:14:14.016Z,99120.31
2022-09-15T21:16:41.082Z,99126.31
2022-09-15T21:19:09.601Z,99125.19
2022-09-15T21:21:41.629Z,99121.78
2022-09-15T21:24:09.664Z,99131.97
2022-09-15T21:26:59.809Z,99119.91
2022-09-15T21:29:27.760Z,99116.91
2022-09-15T21:31:55.797Z,99112.00
2022-09-15T21:34:29.972Z,99117.28
2022-09-15T21:36:57.913Z,99117.66
2022-09-15T21:39:24.500Z,99117.66
2022-09-15T21:41:51.159Z,99119.13
2022-09-15T21:44:21.167Z,99116.50
2022-09-15T21:46:50.463Z,99123.69
2022-09-15T21:49:18.221Z,99104.84
2022-09-15T21:51:44.874Z,99116.91
2022-09-15T21:54:11.520Z,99113.16
2022-09-15T21:56:39.747Z,99113.13
2022-09-15T21:59:06.323Z,99122.53
2022-09-15T22:01:33.394Z,99119.16
2022-09-15T22:04:08.032Z,99120.31
2022-09-15T22:06:36.730Z,99119.16
2022-09-15T22:09:14.170Z,99118.78
2022-09-15T22:11:41.314Z,99105.59
2022-09-15T22:14:08.331Z,99116.53
2022-09-15T22:16:37.004Z,99122.19
2022-09-15T22:19:05.452Z,99120.69
2022-09-15T22:21:36.545Z,99115.78
2022-09-15T22:24:05.463Z,99124.44
2022-09-15T22:26:33.410Z,99118.03
2022-09-15T22:29:00.056Z,99121.03
2022-09-15T22:31:28.172Z,99123.69
2022-09-15T22:33:55.354Z,99116.53
2022-09-15T22:36:29.736Z,99115.78
2022-09-15T22:39:04.838Z,99121.41
2022-09-15T22:41:36.808Z,99128.97
2022-09-15T22:44:04.239Z,99113.50
2022-09-15T22:46:31.097Z,99116.13
2022-09-15T22:48:58.801Z,99107.50
2022-09-15T22:51:27.738Z,99108.22
2022-09-15T22:53:56.986Z,99098.81
2022-09-15T22:56:26.130Z,99108.22
2022-09-15T22:58:53.030Z,99095.81
2022-09-15T23:01:22.347Z,99112.38
2022-09-15T23:03:53.564Z,99110.50
2022-09-15T23:06:21.377Z,99116.50
2022-09-15T23:08:56.153Z,99109.72
2022-09-15T23:11:23.356Z,99112.00
2022-09-15T23:13:50.173Z,99115.41
2022-09-15T23:16:17.007Z,99107.50
2022-09-15T23:18:44.621Z,99100.69
2022-09-15T23:21:12.250Z,99103.72
2022-09-15T23:23:40.395Z,99090.13
2022-09-15T23:26:08.739Z,99086.78
2022-09-15T23:28:35.383Z,99093.53
2022-09-15T23:31:05.673Z,99081.88
2022-09-15T23:33:32.367Z,99078.84
2022-09-15T23:36:00.566Z,99086.75
2022-09-15T23:38:27.654Z,99083.72
2022-09-15T23:40:55.573Z,99083.38
2022-09-15T23:43:22.376Z,99086.72
2022-09-15T23:45:50.271Z,99106.69
2022-09-15T23:48:18.483Z,99102.53
2022-09-15T23:50:45.291Z,99089.34
2022-09-15T23:53:12.361Z,99082.19
2022-09-15T23:55:39.022Z,99099.16
2022-09-15T23:58:05.935Z,99079.16
